createdAt,value
2017-09-01T00:00:57.578Z,6.87
2017-09-01T00:06:00.162Z,7.23
2017-09-01T00:11:02.763Z,6.87
2017-09-01T00:16:05.333Z,6.60
2017-09-01T00:21:07.908Z,6.60
2017-09-01T00:26:10.517Z,6.37
2017-09-01T00:31:13.153Z,6.73
2017-09-01T00:36:15.741Z,7.60
2017-09-01T00:41:18.368Z,7.73
2017-09-01T00:46:21.014Z,7.57
2017-09-01T00:51:23.643Z,6.17
2017-09-01T00:56:26.234Z,6.77
2017-09-01T01:01:28.826Z,7.07
2017-09-01T01:06:31.413Z,7.30
2017-09-01T01:11:34.017Z,7.00
2017-09-01T01:16:36.619Z,7.40
2017-09-01T01:21:39.213Z,7.00
2017-09-01T01:26:41.832Z,7.10
2017-09-01T01:36:44.464Z,6.53
2017-09-01T01:41:47.072Z,6.20
2017-09-01T01:46:49.665Z,7.40
2017-09-01T01:51:52.242Z,8.50
2017-09-01T01:56:54.860Z,7.60
2017-09-01T02:01:57.469Z,7.87
2017-09-01T02:07:00.875Z,8.23
2017-09-01T02:12:03.484Z,8.00
2017-09-01T02:17:06.086Z,8.30
2017-09-01T02:22:09.457Z,9.60
2017-09-01T02:27:12.075Z,8.27
2017-09-01T02:32:14.662Z,8.73
2017-09-01T02:37:17.271Z,8.60
2017-09-01T02:42:19.866Z,8.63
2017-09-01T02:47:22.466Z,8.87
2017-09-01T02:52:25.070Z,8.20
2017-09-01T02:57:27.682Z,7.47
2017-09-01T03:02:30.273Z,9.13
2017-09-01T03:07:32.903Z,10.03
2017-09-01T03:12:35.496Z,8.00
2017-09-01T03:17:38.094Z,9.27
2017-09-01T03:22:40.686Z,8.20
2017-09-01T03:27:43.293Z,8.60
2017-09-01T03:32:45.890Z,9.67
2017-09-01T03:37:48.514Z,10.50
2017-09-01T03:42:51.127Z,8.50
2017-09-01T03:47:53.737Z,9.90
2017-09-01T03:52:56.338Z,10.07
2017-09-01T03:57:58.942Z,10.60
2017-09-01T04:03:01.573Z,10.77
2017-09-01T04:08:04.189Z,11.80
2017-09-01T04:13:06.821Z,11.80
2017-09-01T04:18:09.427Z,11.83
2017-09-01T04:23:12.035Z,12.40
2017-09-01T04:28:14.636Z,11.90
2017-09-01T04:33:17.222Z,12.20
2017-09-01T04:38:19.813Z,12.30
2017-09-01T04:43:22.440Z,13.43
2017-09-01T04:48:25.053Z,12.27
2017-09-01T04:53:27.658Z,14.73
2017-09-01T04:58:30.264Z,14.40
2017-09-01T05:03:32.860Z,14.70
2017-09-01T05:08:35.501Z,14.37
2017-09-01T05:13:40.088Z,14.20
2017-09-01T05:18:43.470Z,13.63
2017-09-01T05:23:46.085Z,13.43
2017-09-01T05:28:48.697Z,12.60
2017-09-01T05:33:51.301Z,12.07
2017-09-01T05:38:53.907Z,13.20
2017-09-01T05:43:57.304Z,13.43
2017-09-01T05:48:59.902Z,13.13
2017-09-01T05:54:02.495Z,13.00
2017-09-01T05:59:05.090Z,12.63
2017-09-01T06:04:07.718Z,12.70
2017-09-01T06:09:10.322Z,12.13
2017-09-01T06:14:13.178Z,11.37
2017-09-01T06:19:15.810Z,12.00
2017-09-01T06:24:18.418Z,11.87
2017-09-01T06:29:21.065Z,10.40
2017-09-01T06:34:23.694Z,10.80
2017-09-01T06:39:26.297Z,9.57
2017-09-01T06:44:28.902Z,9.83
2017-09-01T06:49:31.509Z,8.53
2017-09-01T06:54:34.110Z,8.33
2017-09-01T06:59:36.760Z,8.00
2017-09-01T07:04:39.374Z,8.80
2017-09-01T07:09:41.979Z,8.63
2017-09-01T07:14:44.601Z,7.43
2017-09-01T07:19:47.219Z,7.43
2017-09-01T07:24:49.834Z,7.77
2017-09-01T07:29:52.435Z,7.83
2017-09-01T07:34:55.029Z,7.73
2017-09-01T07:39:57.626Z,8.40
2017-09-01T07:45:00.232Z,7.60
2017-09-01T07:50:02.946Z,7.13
2017-09-01T07:55:06.301Z,5.57
2017-09-01T08:00:08.906Z,4.93
2017-09-01T08:05:11.519Z,4.60
2017-09-01T08:10:14.138Z,4.47
2017-09-01T08:15:17.559Z,4.70
2017-09-01T08:20:20.174Z,4.40
2017-09-01T08:25:22.771Z,4.70
2017-09-01T08:30:25.375Z,5.43
2017-09-01T08:35:27.988Z,5.27
2017-09-01T08:40:30.593Z,6.30
2017-09-01T08:45:33.214Z,6.23
2017-09-01T08:50:35.826Z,5.87
2017-09-01T08:55:38.417Z,5.87
2017-09-01T09:00:41.005Z,7.10
2017-09-01T09:05:43.603Z,7.27
2017-09-01T09:10:46.208Z,7.10
2017-09-01T09:15:48.839Z,7.63
2017-09-01T09:20:51.447Z,6.60
2017-09-01T09:25:54.062Z,8.13
2017-09-01T09:30:56.656Z,7.10
2017-09-01T09:35:59.286Z,8.50
2017-09-01T09:41:01.920Z,8.50
2017-09-01T09:46:04.522Z,7.47
2017-09-01T09:51:07.133Z,7.23
2017-09-01T09:56:09.770Z,7.83
2017-09-01T10:01:12.402Z,7.60
2017-09-01T10:06:15.018Z,7.13
2017-09-01T10:11:17.650Z,7.70
2017-09-01T10:16:20.438Z,8.30
2017-09-01T10:21:23.064Z,8.00
2017-09-01T10:31:33.929Z,7.80
2017-09-01T10:36:36.545Z,8.60
2017-09-01T10:41:39.172Z,8.00
2017-09-01T10:46:41.918Z,7.77
2017-09-01T10:51:56.509Z,7.30
2017-09-01T10:57:10.993Z,7.77
2017-09-01T11:02:13.771Z,46.80
2017-09-01T11:07:16.362Z,7.60
2017-09-01T11:12:18.958Z,8.00
2017-09-01T11:17:21.567Z,9.30
2017-09-01T11:22:29.917Z,8.97
2017-09-01T11:27:32.509Z,7.83
2017-09-01T11:32:35.123Z,7.13
2017-09-01T11:37:37.722Z,7.20
2017-09-01T11:42:40.320Z,7.40
2017-09-01T11:47:42.913Z,7.30
2017-09-01T11:52:45.573Z,8.23
2017-09-01T11:57:48.185Z,7.80
2017-09-01T12:02:50.787Z,7.50
2017-09-01T12:07:53.380Z,7.27
2017-09-01T12:12:55.993Z,7.33
2017-09-01T12:17:58.576Z,7.70
2017-09-01T12:23:01.173Z,6.77
2017-09-01T12:28:03.760Z,7.23
2017-09-01T12:33:06.362Z,7.30
2017-09-01T12:38:09.158Z,7.60
2017-09-01T12:43:11.927Z,5.73
2017-09-01T12:48:14.525Z,6.20
2017-09-01T12:53:17.142Z,6.80
2017-09-01T12:58:19.731Z,6.60
2017-09-01T13:03:22.331Z,6.17
2017-09-01T13:08:24.956Z,6.70
2017-09-01T13:13:27.565Z,5.50
2017-09-01T13:18:30.171Z,5.10
2017-09-01T13:23:32.775Z,4.50
2017-09-01T13:28:35.370Z,4.40
2017-09-01T13:33:37.966Z,3.90
2017-09-01T13:38:40.597Z,4.27
2017-09-01T13:43:43.193Z,4.20
2017-09-01T13:48:45.800Z,3.87
2017-09-01T13:53:48.365Z,4.33
2017-09-01T13:58:50.962Z,4.60
2017-09-01T14:03:53.555Z,4.30
2017-09-01T14:08:56.124Z,4.07
2017-09-01T14:13:58.727Z,4.30
2017-09-01T14:19:01.340Z,3.60
2017-09-01T14:24:03.934Z,4.27
2017-09-01T14:29:06.632Z,4.80
2017-09-01T14:34:09.215Z,4.57
2017-09-01T14:39:11.807Z,4.87
2017-09-01T14:44:14.427Z,4.17
2017-09-01T14:49:17.018Z,3.60
2017-09-01T14:54:19.616Z,4.13
2017-09-01T14:59:22.246Z,4.37
2017-09-01T15:04:24.853Z,3.80
2017-09-01T15:09:27.457Z,3.20
2017-09-01T15:14:30.060Z,3.57
2017-09-01T15:19:32.690Z,3.00
2017-09-01T15:24:35.296Z,4.00
2017-09-01T15:29:37.890Z,2.80
2017-09-01T15:34:40.491Z,2.60
2017-09-01T15:39:43.078Z,2.77
2017-09-01T15:44:45.701Z,3.60
2017-09-01T15:49:48.349Z,2.70
2017-09-01T15:54:50.977Z,2.40
2017-09-01T15:59:53.569Z,2.93
2017-09-01T16:04:56.140Z,2.27
2017-09-01T16:09:58.755Z,2.37
2017-09-01T16:15:01.354Z,2.00
2017-09-01T16:20:03.969Z,2.20
2017-09-01T16:25:06.549Z,1.33
2017-09-01T16:30:09.154Z,1.03
2017-09-01T16:35:11.748Z,1.07
2017-09-01T16:40:14.383Z,1.03
2017-09-01T16:45:16.979Z,0.97
2017-09-01T16:50:19.573Z,1.50
2017-09-01T16:55:22.176Z,1.20
2017-09-01T17:00:24.870Z,1.10
2017-09-01T17:05:28.255Z,1.40
2017-09-01T17:10:30.872Z,1.30
2017-09-01T17:15:33.489Z,1.00
2017-09-01T17:20:36.112Z,1.30
2017-09-01T17:25:38.756Z,1.20
2017-09-01T17:30:41.388Z,1.87
2017-09-01T17:35:44.002Z,1.63
2017-09-01T17:40:46.654Z,1.43
2017-09-01T17:45:49.269Z,1.20
2017-09-01T17:50:51.876Z,1.30
2017-09-01T17:56:00.043Z,1.13
2017-09-01T18:01:02.713Z,1.33
2017-09-01T18:06:05.324Z,1.60
2017-09-01T18:11:07.950Z,1.30
2017-09-01T18:16:10.552Z,1.40
2017-09-01T18:21:13.163Z,1.50
2017-09-01T18:26:15.769Z,1.30
2017-09-01T18:31:18.350Z,1.30
2017-09-01T18:36:21.014Z,1.33
2017-09-01T18:41:23.601Z,2.10
2017-09-01T18:46:26.215Z,1.87
2017-09-01T18:51:28.810Z,1.60
2017-09-01T18:56:31.419Z,1.60
2017-09-01T19:01:34.014Z,1.77
2017-09-01T19:06:36.626Z,1.53
2017-09-01T19:11:39.241Z,1.50
2017-09-01T19:16:41.869Z,1.60
2017-09-01T19:21:44.493Z,2.07
2017-09-01T19:26:47.168Z,1.50
2017-09-01T19:31:49.790Z,2.67
2017-09-01T19:36:53.572Z,1.70
2017-09-01T19:41:56.202Z,2.20
2017-09-01T19:46:58.870Z,1.70
2017-09-01T19:52:01.491Z,1.80
2017-09-01T19:57:04.103Z,2.23
2017-09-01T20:02:06.924Z,2.00
2017-09-01T20:07:09.534Z,1.90
2017-09-01T20:12:12.136Z,2.40
2017-09-01T20:17:14.734Z,2.03
2017-09-01T20:27:26.249Z,2.73
2017-09-01T20:32:28.838Z,3.00
2017-09-01T20:37:31.451Z,2.10
2017-09-01T20:42:34.068Z,1.67
2017-09-01T20:47:36.663Z,2.70
2017-09-01T20:52:39.312Z,3.87
2017-09-01T20:57:41.936Z,4.27
2017-09-01T21:02:44.542Z,2.57
2017-09-01T21:07:47.165Z,2.33
2017-09-01T21:12:49.776Z,2.10
2017-09-01T21:17:52.646Z,2.20
2017-09-01T21:22:55.248Z,2.30
2017-09-01T21:27:59.197Z,2.30
2017-09-01T21:33:02.435Z,2.60
2017-09-01T21:38:05.028Z,2.67
2017-09-01T21:43:07.630Z,2.50
2017-09-01T21:48:10.235Z,3.20
2017-09-01T21:53:12.852Z,2.93
2017-09-01T21:58:15.450Z,2.60
2017-09-01T22:03:18.070Z,2.80
2017-09-01T22:08:21.590Z,3.17
2017-09-01T22:13:24.220Z,2.87
2017-09-01T22:18:26.820Z,3.30
2017-09-01T22:23:29.454Z,2.53
2017-09-01T22:28:32.060Z,2.63
2017-09-01T22:33:37.300Z,3.00
2017-09-01T22:38:39.995Z,2.80
2017-09-01T22:43:42.602Z,2.63
2017-09-01T22:48:45.195Z,2.80
2017-09-01T22:53:47.793Z,2.57
2017-09-01T22:58:50.421Z,3.00
2017-09-01T23:03:52.991Z,2.50
2017-09-01T23:08:55.590Z,2.70
2017-09-01T23:13:58.219Z,2.77
2017-09-01T23:19:00.814Z,2.73
2017-09-01T23:24:03.421Z,2.93
2017-09-01T23:29:06.020Z,2.73
2017-09-01T23:34:08.614Z,3.93
2017-09-01T23:39:11.220Z,3.60
2017-09-01T23:44:14.573Z,3.00
2017-09-01T23:49:17.210Z,2.23
2017-09-01T23:54:19.806Z,2.53
2017-09-01T23:59:22.418Z,3.30
